Terminal Aerodrome Forecast
Issued by NWS Bismarck, ND

Home | Current Version | Previous Version | Graphics & Text | Print | Product List | Glossary On
Versions: 1 2 3 4 5 6 7 8 9 10 11 12 13 14 15 16 17 18 19 20 21 22 23 24 25 26
081
FTUS43 KBIS 031120
TAFISN
TAF
KISN 031120Z 0312/0412 18005KT P6SM SCT200
     FM031500 19006KT P6SM VCSH BKN100
     FM031800 22009KT P6SM VCSH OVC025
     FM040100 27008KT P6SM OVC030
     FM040900 25006KT P6SM SCT110=

USA.gov is the U.S. government's official web portal to all federal, state and local government web resources and services.